Aircraft
UPR1004 PT-KAD BE58
SBRP
Leite Lopes Airport
SIMK
Tenente Lund Pressoto Airport
Pilot:: Jair
Aircraft:: Cirrus SR22T
Alternate: SBRP
Network: ivao
FLIGHT DETAILS
Distance: 39nm Duration 00h 16m
Cruise Speed: Flight Level: 4000
Validation: Validated Type Charter
Flight Fuel
ZFW: 1202
Block Fuel/Initial FOB: 146
Flight Fuel: 0
Cargo
Passengers: 4
Cargo: 98
ROUTE
ROUTE: dct
REMARKS:
DATE
Date: 26-08-31
Departure Time: 2159
Cargo: 98
FLIGHT DETAILS
Crashed: No
Validator Comments: Validado por Claudenir
Flight Rating: 100
LANDING ANALYSIS
Landing wind: 11º/17 kt
Landing heading: 59º
Landing VS:: -105 ft/min
Landing IAS:: 74 kt
Landing Force G: 1.1 G
Landing Bank: 0
Landing Pitch: -3
Landing Flaps: 50
Navigation Lights: ON
Landing Lights: ON
Beacon Lights: ON
Strobe Lights: ON
viserfly

ALTITUDE CHART

viserfly

MAIN EVENTS

DATE EVENT IAS ALTITUDE
2026-08-31 21:58:05 FLYacars version 1.3.6 3 1821
2026-08-31 21:58:05 Aircraft boarding in progress 3 1821
2026-08-31 21:58:05 Navigation Lights ON 3 1821
2026-08-31 21:58:05 Beacon Lights ON 3 1821
2026-08-31 21:58:05 Strobe Lights ON 3 1821
2026-08-31 21:58:05 Landing Lights ON 3 1821
2026-08-31 21:58:05 Starting Engine 1 3 1821
2026-08-31 21:58:49 Aircraft taxiing to runway 9 1821
2026-08-31 21:59:09 Detected Take-off roll, HDG 4, IAS 86kt, GS 90kt, G-force 1.0g, Pitch -4.9deg, Bank 1.8deg, Wind 059/11kt, Temp 30°C 86 1823
2026-08-31 21:59:09 Airborne 86 1823
2026-08-31 21:59:09 Incorrect altimeter settings on takeoff 86 1823
2026-08-31 22:01:24 Aircraft on Top Of Climb at 4330ft, IAS 135kt, GS 138kt, HDG 75deg, TAT 24deg, WIND 3/19kt 135 4330
2026-08-31 22:13:20 FLAPS 50% 135kt, ALT 4015ft 135 4015
2026-08-31 22:14:39 Aircraft on Top Of Descent at 3499ft, IAS 93kt, GS 83kt, HDG 54deg, TAT 28deg, WIND 8/21kt 93 3499
2026-08-31 22:15:27 Landed at destination with a landing rate of -105fpm, G-force 1.1g, Pitch -2.7deg, Bank -0.4deg, HDG 59deg, IAS 74kt, GS 66kt, Wind 011/17kt, Temp 29°C 74 3289
2026-08-31 22:15:27 Incorrect altimeter settings on landing 74 3289
2026-08-31 22:15:48 FLAPS 0% 51 3281
2026-08-31 22:16:03 Aircraft taxiing to apron 33 3283
2026-08-31 22:17:52 Engine 1 shutdown 0 3283
2026-08-31 22:18:09 Aircraft at gate/stand, ground services are moving into position, disembarkation has begun. Remaining FOB 146kg FLYacars v1.3.6 0 3283
viserfly

ACARS DATA

DATE IAS GS ALTITUDE FUEL CONSUMED OAT FLIGHT STATUS
2026-08-31 21:58:35 4 0 1821 0 32 BOARDING
2026-08-31 21:59:05 72 76 1821 0 30 TAKEOFF
2026-08-31 21:59:35 103 109 2265 0 30 TAKEOFF
2026-08-31 22:00:05 106 97 3034 0 28 INITIAL CLIMB
2026-08-31 22:00:35 122 123 3516 0 26 INITIAL CLIMB
2026-08-31 22:01:05 130 128 4089 0 25 CLIMB
2026-08-31 22:01:35 142 146 4340 0 24 ENROUTE
2026-08-31 22:02:05 152 157 4369 0 24 CLIMB
2026-08-31 22:02:35 165 168 4341 0 24 ENROUTE
2026-08-31 22:03:05 168 165 4239 0 24 ENROUTE
2026-08-31 22:03:35 166 165 4222 0 25 ENROUTE
2026-08-31 22:04:05 171 165 4323 0 24 ENROUTE
2026-08-31 22:04:35 168 164 4333 0 24 ENROUTE
2026-08-31 22:05:05 168 163 4382 0 24 ENROUTE
2026-08-31 22:05:35 169 162 4466 0 24 ENROUTE
2026-08-31 22:06:05 167 163 4451 0 24 ENROUTE
2026-08-31 22:06:35 171 164 4444 0 24 ENROUTE
2026-08-31 22:07:05 165 167 4440 0 24 ENROUTE
2026-08-31 22:07:35 167 169 4510 0 24 ENROUTE
2026-08-31 22:08:05 165 170 4537 0 24 ENROUTE
2026-08-31 22:08:35 170 170 4579 0 24 ENROUTE
2026-08-31 22:09:05 169 166 4661 0 24 ENROUTE
2026-08-31 22:09:35 168 170 4617 0 24 ENROUTE
2026-08-31 22:10:05 167 166 4564 0 24 ENROUTE
2026-08-31 22:10:35 173 174 4511 0 24 ENROUTE
2026-08-31 22:11:05 178 180 4205 0 25 ENROUTE
2026-08-31 22:11:35 178 178 3969 0 26 ENROUTE
2026-08-31 22:12:05 154 156 3968 0 26 ENROUTE
2026-08-31 22:12:35 155 146 4024 0 26 ENROUTE
2026-08-31 22:13:05 156 150 4036 0 26 ENROUTE
2026-08-31 22:13:35 108 103 3985 0 26 ENROUTE
2026-08-31 22:14:05 100 92 3822 0 27 ON FINAL
2026-08-31 22:14:35 91 84 3562 0 28 ON FINAL
2026-08-31 22:15:05 92 85 3357 0 29 ON FINAL
2026-08-31 22:15:35 67 60 3283 0 29 ON FINAL
2026-08-31 22:16:05 29 21 3283 0 29 TAXI TO APRON
2026-08-31 22:16:35 19 15 3283 0 29 TAXI TO APRON
2026-08-31 22:17:05 22 13 3283 0 29 TAXI TO APRON
2026-08-31 22:17:35 0 0 3283 0 29 TAXI TO APRON
2026-08-31 22:18:05 0 0 3283 0 29 TAXI TO APRON
  • Join our VA!

    It has been 11 years of great learning, friendships, and stories.

  • Sign up now!